sensor_id;sensor_type;location;lat;lon;timestamp;temperature;humidity
37432;DHT22;23292;51.300;6.252;2023-11-19T00:00:18;12.50;99.90
37432;DHT22;23292;51.300;6.252;2023-11-19T00:02:45;12.50;99.90
37432;DHT22;23292;51.300;6.252;2023-11-19T00:05:12;12.60;99.90
37432;DHT22;23292;51.300;6.252;2023-11-19T00:07:40;12.60;99.90
37432;DHT22;23292;51.300;6.252;2023-11-19T00:10:14;12.60;99.90
37432;DHT22;23292;51.300;6.252;2023-11-19T00:12:46;12.70;99.90
37432;DHT22;23292;51.300;6.252;2023-11-19T00:15:14;12.60;99.90
37432;DHT22;23292;51.300;6.252;2023-11-19T00:17:42;12.60;99.90
37432;DHT22;23292;51.300;6.252;2023-11-19T00:20:17;12.60;99.90
37432;DHT22;23292;51.300;6.252;2023-11-19T00:22:44;12.70;99.90
37432;DHT22;23292;51.300;6.252;2023-11-19T00:25:16;12.70;99.90
37432;DHT22;23292;51.300;6.252;2023-11-19T00:27:43;12.70;99.90
37432;DHT22;23292;51.300;6.252;2023-11-19T00:30:13;12.60;99.90
37432;DHT22;23292;51.300;6.252;2023-11-19T00:32:41;12.60;99.90
37432;DHT22;23292;51.300;6.252;2023-11-19T00:35:08;12.70;99.90
37432;DHT22;23292;51.300;6.252;2023-11-19T00:37:37;12.70;99.90
37432;DHT22;23292;51.300;6.252;2023-11-19T00:40:04;12.70;99.90
37432;DHT22;23292;51.300;6.252;2023-11-19T00:42:32;12.70;99.90
37432;DHT22;23292;51.300;6.252;2023-11-19T00:44:59;12.80;99.90
37432;DHT22;23292;51.300;6.252;2023-11-19T00:47:28;12.70;99.90
37432;DHT22;23292;51.300;6.252;2023-11-19T00:49:54;12.70;99.90
37432;DHT22;23292;51.300;6.252;2023-11-19T00:52:22;12.70;99.90
37432;DHT22;23292;51.300;6.252;2023-11-19T00:54:48;12.70;99.90
37432;DHT22;23292;51.300;6.252;2023-11-19T00:57:16;12.70;99.90
37432;DHT22;23292;51.300;6.252;2023-11-19T00:59:43;12.70;99.90
37432;DHT22;23292;51.300;6.252;2023-11-19T01:02:09;12.70;99.90
37432;DHT22;23292;51.300;6.252;2023-11-19T01:04:37;12.70;99.90
37432;DHT22;23292;51.300;6.252;2023-11-19T01:07:05;12.70;99.90
37432;DHT22;23292;51.300;6.252;2023-11-19T01:09:33;12.70;99.90
37432;DHT22;23292;51.300;6.252;2023-11-19T01:12:02;12.70;99.90
37432;DHT22;23292;51.300;6.252;2023-11-19T01:14:30;12.80;99.90
37432;DHT22;23292;51.300;6.252;2023-11-19T01:16:57;12.70;99.90
37432;DHT22;23292;51.300;6.252;2023-11-19T01:19:24;12.70;99.90
37432;DHT22;23292;51.300;6.252;2023-11-19T01:21:51;12.80;99.90
37432;DHT22;23292;51.300;6.252;2023-11-19T01:24:18;12.80;99.90
37432;DHT22;23292;51.300;6.252;2023-11-19T01:26:46;12.90;99.90
37432;DHT22;23292;51.300;6.252;2023-11-19T01:29:15;12.80;99.90
37432;DHT22;23292;51.300;6.252;2023-11-19T01:31:43;12.80;99.90
37432;DHT22;23292;51.300;6.252;2023-11-19T01:34:10;12.80;99.90
37432;DHT22;23292;51.300;6.252;2023-11-19T01:36:38;12.80;99.90
37432;DHT22;23292;51.300;6.252;2023-11-19T01:39:06;12.80;99.90
37432;DHT22;23292;51.300;6.252;2023-11-19T01:41:36;12.80;99.90
37432;DHT22;23292;51.300;6.252;2023-11-19T01:44:08;12.80;99.90
37432;DHT22;23292;51.300;6.252;2023-11-19T01:46:35;12.90;99.90
37432;DHT22;23292;51.300;6.252;2023-11-19T01:49:04;12.80;99.90
37432;DHT22;23292;51.300;6.252;2023-11-19T01:51:32;12.90;99.90
37432;DHT22;23292;51.300;6.252;2023-11-19T01:53:59;12.80;99.90
37432;DHT22;23292;51.300;6.252;2023-11-19T01:56:27;12.80;99.90
37432;DHT22;23292;51.300;6.252;2023-11-19T01:58:55;12.80;99.90
37432;DHT22;23292;51.300;6.252;2023-11-19T02:01:23;12.90;99.90
37432;DHT22;23292;51.300;6.252;2023-11-19T02:03:51;12.80;99.90
37432;DHT22;23292;51.300;6.252;2023-11-19T02:06:19;12.90;99.90
37432;DHT22;23292;51.300;6.252;2023-11-19T02:08:46;12.90;99.90
37432;DHT22;23292;51.300;6.252;2023-11-19T02:11:13;12.90;99.90
37432;DHT22;23292;51.300;6.252;2023-11-19T02:13:40;12.80;99.90
37432;DHT22;23292;51.300;6.252;2023-11-19T02:16:08;12.80;99.90
37432;DHT22;23292;51.300;6.252;2023-11-19T02:18:37;12.80;99.90
37432;DHT22;23292;51.300;6.252;2023-11-19T02:21:04;12.80;99.90
37432;DHT22;23292;51.300;6.252;2023-11-19T02:23:32;12.80;99.90
37432;DHT22;23292;51.300;6.252;2023-11-19T02:26:33;12.80;99.90
37432;DHT22;23292;51.300;6.252;2023-11-19T02:28:52;12.70;99.90
37432;DHT22;23292;51.300;6.252;2023-11-19T02:31:19;12.70;99.90
37432;DHT22;23292;51.300;6.252;2023-11-19T02:33:46;12.70;99.90
37432;DHT22;23292;51.300;6.252;2023-11-19T02:36:13;12.80;99.90
37432;DHT22;23292;51.300;6.252;2023-11-19T02:38:40;12.80;99.90
37432;DHT22;23292;51.300;6.252;2023-11-19T02:41:07;12.80;99.90
37432;DHT22;23292;51.300;6.252;2023-11-19T02:43:35;12.80;99.90
37432;DHT22;23292;51.300;6.252;2023-11-19T02:46:05;12.90;99.90
37432;DHT22;23292;51.300;6.252;2023-11-19T02:48:38;12.90;99.90
37432;DHT22;23292;51.300;6.252;2023-11-19T02:51:06;12.80;99.90
37432;DHT22;23292;51.300;6.252;2023-11-19T02:53:36;12.80;99.90
37432;DHT22;23292;51.300;6.252;2023-11-19T02:56:07;12.70;99.90
37432;DHT22;23292;51.300;6.252;2023-11-19T02:58:52;12.70;99.90
37432;DHT22;23292;51.300;6.252;2023-11-19T03:01:25;12.50;99.90
37432;DHT22;23292;51.300;6.252;2023-11-19T03:04:00;12.60;99.90
37432;DHT22;23292;51.300;6.252;2023-11-19T03:06:30;12.70;99.90
37432;DHT22;23292;51.300;6.252;2023-11-19T03:08:57;12.70;99.90
37432;DHT22;23292;51.300;6.252;2023-11-19T03:11:24;12.70;99.90
37432;DHT22;23292;51.300;6.252;2023-11-19T03:13:51;12.80;99.90
37432;DHT22;23292;51.300;6.252;2023-11-19T03:16:18;12.80;99.90
37432;DHT22;23292;51.300;6.252;2023-11-19T03:18:45;12.80;99.90
37432;DHT22;23292;51.300;6.252;2023-11-19T03:21:11;12.80;99.90
37432;DHT22;23292;51.300;6.252;2023-11-19T03:23:39;12.80;99.90
37432;DHT22;23292;51.300;6.252;2023-11-19T03:26:06;12.80;99.90
37432;DHT22;23292;51.300;6.252;2023-11-19T03:28:34;12.70;99.90
37432;DHT22;23292;51.300;6.252;2023-11-19T03:31:04;12.60;99.90
37432;DHT22;23292;51.300;6.252;2023-11-19T03:33:35;12.60;99.90
37432;DHT22;23292;51.300;6.252;2023-11-19T03:36:02;12.60;99.90
37432;DHT22;23292;51.300;6.252;2023-11-19T03:38:30;12.50;99.90
37432;DHT22;23292;51.300;6.252;2023-11-19T03:40:56;12.40;99.90
37432;DHT22;23292;51.300;6.252;2023-11-19T03:43:23;12.30;99.90
37432;DHT22;23292;51.300;6.252;2023-11-19T03:45:50;12.30;99.90
37432;DHT22;23292;51.300;6.252;2023-11-19T03:48:17;12.20;99.90
37432;DHT22;23292;51.300;6.252;2023-11-19T03:50:45;12.20;99.90
37432;DHT22;23292;51.300;6.252;2023-11-19T03:53:12;12.10;99.90
37432;DHT22;23292;51.300;6.252;2023-11-19T03:55:40;12.30;99.90
37432;DHT22;23292;51.300;6.252;2023-11-19T03:58:07;12.20;99.90
37432;DHT22;23292;51.300;6.252;2023-11-19T04:00:33;12.30;99.90
37432;DHT22;23292;51.300;6.252;2023-11-19T04:03:00;12.20;99.90
37432;DHT22;23292;51.300;6.252;2023-11-19T04:05:27;12.10;99.90
37432;DHT22;23292;51.300;6.252;2023-11-19T04:07:54;12.10;99.90
37432;DHT22;23292;51.300;6.252;2023-11-19T04:10:21;12.00;99.90
37432;DHT22;23292;51.300;6.252;2023-11-19T04:12:49;12.00;99.90
37432;DHT22;23292;51.300;6.252;2023-11-19T04:15:16;12.00;99.90
37432;DHT22;23292;51.300;6.252;2023-11-19T04:17:43;12.00;99.90
37432;DHT22;23292;51.300;6.252;2023-11-19T04:20:10;12.10;99.90
37432;DHT22;23292;51.300;6.252;2023-11-19T04:22:40;12.20;99.90
37432;DHT22;23292;51.300;6.252;2023-11-19T04:25:08;12.20;99.90
37432;DHT22;23292;51.300;6.252;2023-11-19T04:27:35;12.10;99.90
37432;DHT22;23292;51.300;6.252;2023-11-19T04:30:02;12.20;99.90
37432;DHT22;23292;51.300;6.252;2023-11-19T04:32:30;12.20;99.90
37432;DHT22;23292;51.300;6.252;2023-11-19T04:34:57;12.10;99.90
37432;DHT22;23292;51.300;6.252;2023-11-19T04:37:24;12.10;99.90
37432;DHT22;23292;51.300;6.252;2023-11-19T04:39:51;12.00;99.90
37432;DHT22;23292;51.300;6.252;2023-11-19T04:42:18;12.00;99.90
37432;DHT22;23292;51.300;6.252;2023-11-19T04:44:44;12.10;99.90
37432;DHT22;23292;51.300;6.252;2023-11-19T04:47:11;12.20;99.90
37432;DHT22;23292;51.300;6.252;2023-11-19T04:49:41;12.20;99.90
37432;DHT22;23292;51.300;6.252;2023-11-19T04:52:09;12.30;99.90
37432;DHT22;23292;51.300;6.252;2023-11-19T04:54:41;12.30;99.90
37432;DHT22;23292;51.300;6.252;2023-11-19T04:57:09;12.30;99.90
37432;DHT22;23292;51.300;6.252;2023-11-19T04:59:38;12.30;99.90
37432;DHT22;23292;51.300;6.252;2023-11-19T05:02:05;12.30;99.90
37432;DHT22;23292;51.300;6.252;2023-11-19T05:04:32;12.30;99.90
37432;DHT22;23292;51.300;6.252;2023-11-19T05:06:59;12.20;99.90
37432;DHT22;23292;51.300;6.252;2023-11-19T05:09:26;12.30;99.90
37432;DHT22;23292;51.300;6.252;2023-11-19T05:11:53;12.30;99.90
37432;DHT22;23292;51.300;6.252;2023-11-19T05:14:20;12.30;99.90
37432;DHT22;23292;51.300;6.252;2023-11-19T05:16:48;12.30;99.90
37432;DHT22;23292;51.300;6.252;2023-11-19T05:19:15;12.40;99.90
37432;DHT22;23292;51.300;6.252;2023-11-19T05:21:42;12.40;99.90
37432;DHT22;23292;51.300;6.252;2023-11-19T05:24:10;12.50;99.90
37432;DHT22;23292;51.300;6.252;2023-11-19T05:26:38;12.50;99.90
37432;DHT22;23292;51.300;6.252;2023-11-19T05:29:05;12.50;99.90
37432;DHT22;23292;51.300;6.252;2023-11-19T05:31:31;12.50;99.90
37432;DHT22;23292;51.300;6.252;2023-11-19T05:34:02;12.50;99.90
37432;DHT22;23292;51.300;6.252;2023-11-19T05:36:29;12.60;99.90
37432;DHT22;23292;51.300;6.252;2023-11-19T05:38:56;12.60;99.90
37432;DHT22;23292;51.300;6.252;2023-11-19T05:41:23;12.50;99.90
37432;DHT22;23292;51.300;6.252;2023-11-19T05:43:50;12.50;99.90
37432;DHT22;23292;51.300;6.252;2023-11-19T05:46:16;12.50;99.90
37432;DHT22;23292;51.300;6.252;2023-11-19T05:48:46;12.50;99.90
37432;DHT22;23292;51.300;6.252;2023-11-19T05:51:13;12.40;99.90
37432;DHT22;23292;51.300;6.252;2023-11-19T05:53:42;12.40;99.90
37432;DHT22;23292;51.300;6.252;2023-11-19T05:56:09;12.30;99.90
37432;DHT22;23292;51.300;6.252;2023-11-19T05:58:37;12.30;99.90
37432;DHT22;23292;51.300;6.252;2023-11-19T06:01:05;12.20;99.90
37432;DHT22;23292;51.300;6.252;2023-11-19T06:03:35;12.20;99.90
37432;DHT22;23292;51.300;6.252;2023-11-19T06:06:02;12.10;99.90
37432;DHT22;23292;51.300;6.252;2023-11-19T06:08:28;12.20;99.90
37432;DHT22;23292;51.300;6.252;2023-11-19T06:10:57;12.30;99.90
37432;DHT22;23292;51.300;6.252;2023-11-19T06:13:24;12.20;99.90
37432;DHT22;23292;51.300;6.252;2023-11-19T06:15:52;12.10;99.90
37432;DHT22;23292;51.300;6.252;2023-11-19T06:18:19;12.10;99.90
37432;DHT22;23292;51.300;6.252;2023-11-19T06:20:47;12.10;99.90
37432;DHT22;23292;51.300;6.252;2023-11-19T06:23:14;12.10;99.90
37432;DHT22;23292;51.300;6.252;2023-11-19T06:25:42;12.00;99.90
37432;DHT22;23292;51.300;6.252;2023-11-19T06:28:08;12.00;99.90
37432;DHT22;23292;51.300;6.252;2023-11-19T06:30:36;11.80;99.90
37432;DHT22;23292;51.300;6.252;2023-11-19T06:33:03;11.90;99.90
37432;DHT22;23292;51.300;6.252;2023-11-19T06:35:30;11.80;99.90
37432;DHT22;23292;51.300;6.252;2023-11-19T06:38:03;11.80;99.90
37432;DHT22;23292;51.300;6.252;2023-11-19T06:40:34;11.80;99.90
37432;DHT22;23292;51.300;6.252;2023-11-19T06:43:02;11.70;99.90
37432;DHT22;23292;51.300;6.252;2023-11-19T06:45:31;11.60;99.90
37432;DHT22;23292;51.300;6.252;2023-11-19T06:48:00;11.60;99.90
37432;DHT22;23292;51.300;6.252;2023-11-19T06:50:28;11.50;99.90
37432;DHT22;23292;51.300;6.252;2023-11-19T06:52:55;11.50;99.90
37432;DHT22;23292;51.300;6.252;2023-11-19T06:55:21;11.50;99.90
37432;DHT22;23292;51.300;6.252;2023-11-19T06:57:48;11.40;99.90
37432;DHT22;23292;51.300;6.252;2023-11-19T07:00:15;11.40;99.90
37432;DHT22;23292;51.300;6.252;2023-11-19T07:02:43;11.40;99.90
37432;DHT22;23292;51.300;6.252;2023-11-19T07:05:11;11.40;99.90
37432;DHT22;23292;51.300;6.252;2023-11-19T07:07:39;11.40;99.90
37432;DHT22;23292;51.300;6.252;2023-11-19T07:10:07;11.40;99.90
37432;DHT22;23292;51.300;6.252;2023-11-19T07:12:36;11.30;99.90
37432;DHT22;23292;51.300;6.252;2023-11-19T07:15:04;11.30;99.90
37432;DHT22;23292;51.300;6.252;2023-11-19T07:17:31;11.20;99.90
37432;DHT22;23292;51.300;6.252;2023-11-19T07:19:58;11.10;99.90
37432;DHT22;23292;51.300;6.252;2023-11-19T07:22:26;11.20;99.90
37432;DHT22;23292;51.300;6.252;2023-11-19T07:24:55;11.20;99.90
37432;DHT22;23292;51.300;6.252;2023-11-19T07:27:22;11.20;99.90
37432;DHT22;23292;51.300;6.252;2023-11-19T07:29:50;11.30;99.90
37432;DHT22;23292;51.300;6.252;2023-11-19T07:32:17;11.40;99.90
37432;DHT22;23292;51.300;6.252;2023-11-19T07:34:44;11.30;99.90
37432;DHT22;23292;51.300;6.252;2023-11-19T07:37:11;11.40;99.90
37432;DHT22;23292;51.300;6.252;2023-11-19T07:39:38;11.40;99.90
37432;DHT22;23292;51.300;6.252;2023-11-19T07:42:07;11.40;99.90
37432;DHT22;23292;51.300;6.252;2023-11-19T07:44:35;11.60;99.90
37432;DHT22;23292;51.300;6.252;2023-11-19T07:47:03;11.50;99.90
37432;DHT22;23292;51.300;6.252;2023-11-19T07:49:30;11.50;99.90
37432;DHT22;23292;51.300;6.252;2023-11-19T07:51:57;11.50;99.90
37432;DHT22;23292;51.300;6.252;2023-11-19T07:54:24;11.60;99.90
37432;DHT22;23292;51.300;6.252;2023-11-19T07:56:51;11.70;99.90
37432;DHT22;23292;51.300;6.252;2023-11-19T07:59:19;11.70;99.90
37432;DHT22;23292;51.300;6.252;2023-11-19T08:01:45;11.80;99.90
37432;DHT22;23292;51.300;6.252;2023-11-19T08:04:12;11.90;99.90
37432;DHT22;23292;51.300;6.252;2023-11-19T08:06:40;12.00;99.90
37432;DHT22;23292;51.300;6.252;2023-11-19T08:09:06;12.10;99.90
37432;DHT22;23292;51.300;6.252;2023-11-19T08:11:33;12.10;99.90
37432;DHT22;23292;51.300;6.252;2023-11-19T08:14:00;12.10;99.90
37432;DHT22;23292;51.300;6.252;2023-11-19T08:16:27;12.20;99.90
37432;DHT22;23292;51.300;6.252;2023-11-19T08:18:54;12.20;99.90
37432;DHT22;23292;51.300;6.252;2023-11-19T08:21:21;12.20;99.90
37432;DHT22;23292;51.300;6.252;2023-11-19T08:23:49;12.20;99.90
37432;DHT22;23292;51.300;6.252;2023-11-19T08:26:16;12.20;99.90
37432;DHT22;23292;51.300;6.252;2023-11-19T08:28:47;12.20;99.90
37432;DHT22;23292;51.300;6.252;2023-11-19T08:31:14;12.20;99.90
37432;DHT22;23292;51.300;6.252;2023-11-19T08:33:41;12.20;99.90
37432;DHT22;23292;51.300;6.252;2023-11-19T08:36:08;12.20;99.90
37432;DHT22;23292;51.300;6.252;2023-11-19T08:38:35;12.30;99.90
37432;DHT22;23292;51.300;6.252;2023-11-19T08:41:02;12.40;99.90
37432;DHT22;23292;51.300;6.252;2023-11-19T08:43:29;12.40;99.90
37432;DHT22;23292;51.300;6.252;2023-11-19T08:45:58;12.40;99.90
37432;DHT22;23292;51.300;6.252;2023-11-19T08:48:25;12.40;99.90
37432;DHT22;23292;51.300;6.252;2023-11-19T08:50:52;12.50;99.90
37432;DHT22;23292;51.300;6.252;2023-11-19T08:53:19;12.50;99.90
37432;DHT22;23292;51.300;6.252;2023-11-19T08:55:46;12.70;99.90
37432;DHT22;23292;51.300;6.252;2023-11-19T08:58:13;12.80;99.90
37432;DHT22;23292;51.300;6.252;2023-11-19T09:00:39;12.80;99.90
37432;DHT22;23292;51.300;6.252;2023-11-19T09:03:07;12.90;99.90
37432;DHT22;23292;51.300;6.252;2023-11-19T09:05:36;13.00;99.90
37432;DHT22;23292;51.300;6.252;2023-11-19T09:08:04;13.20;99.90
37432;DHT22;23292;51.300;6.252;2023-11-19T09:10:31;13.30;99.90
37432;DHT22;23292;51.300;6.252;2023-11-19T09:12:58;13.30;99.90
37432;DHT22;23292;51.300;6.252;2023-11-19T09:15:25;13.30;99.90
37432;DHT22;23292;51.300;6.252;2023-11-19T09:17:52;13.40;99.90
37432;DHT22;23292;51.300;6.252;2023-11-19T09:20:19;13.40;99.90
37432;DHT22;23292;51.300;6.252;2023-11-19T09:22:46;13.50;99.90
37432;DHT22;23292;51.300;6.252;2023-11-19T09:25:13;13.40;99.90
37432;DHT22;23292;51.300;6.252;2023-11-19T09:27:44;13.30;99.90
37432;DHT22;23292;51.300;6.252;2023-11-19T09:30:11;13.40;99.90
37432;DHT22;23292;51.300;6.252;2023-11-19T09:32:39;13.50;99.90
37432;DHT22;23292;51.300;6.252;2023-11-19T09:35:07;13.50;99.90
37432;DHT22;23292;51.300;6.252;2023-11-19T09:37:35;13.50;99.90
37432;DHT22;23292;51.300;6.252;2023-11-19T09:40:02;13.40;99.90
37432;DHT22;23292;51.300;6.252;2023-11-19T09:42:30;13.40;99.90
37432;DHT22;23292;51.300;6.252;2023-11-19T09:45:02;13.40;99.90
37432;DHT22;23292;51.300;6.252;2023-11-19T09:47:30;13.40;99.90
37432;DHT22;23292;51.300;6.252;2023-11-19T09:49:58;13.50;99.90
37432;DHT22;23292;51.300;6.252;2023-11-19T09:52:25;13.60;99.90
37432;DHT22;23292;51.300;6.252;2023-11-19T09:54:52;13.70;99.90
37432;DHT22;23292;51.300;6.252;2023-11-19T09:57:19;13.90;99.90
37432;DHT22;23292;51.300;6.252;2023-11-19T09:59:46;13.80;99.90
37432;DHT22;23292;51.300;6.252;2023-11-19T10:02:14;13.70;99.90
37432;DHT22;23292;51.300;6.252;2023-11-19T10:04:42;13.50;99.90
37432;DHT22;23292;51.300;6.252;2023-11-19T10:07:11;13.30;99.90
37432;DHT22;23292;51.300;6.252;2023-11-19T10:09:38;13.40;99.90
37432;DHT22;23292;51.300;6.252;2023-11-19T10:12:05;13.50;99.90
37432;DHT22;23292;51.300;6.252;2023-11-19T10:14:34;13.50;99.90
37432;DHT22;23292;51.300;6.252;2023-11-19T10:17:07;13.70;99.90
37432;DHT22;23292;51.300;6.252;2023-11-19T10:19:35;13.70;99.90
37432;DHT22;23292;51.300;6.252;2023-11-19T10:22:05;13.80;99.90
37432;DHT22;23292;51.300;6.252;2023-11-19T10:24:33;13.70;99.90
37432;DHT22;23292;51.300;6.252;2023-11-19T10:27:07;13.70;99.90
37432;DHT22;23292;51.300;6.252;2023-11-19T10:29:38;13.60;99.90
37432;DHT22;23292;51.300;6.252;2023-11-19T10:32:05;13.60;99.90
37432;DHT22;23292;51.300;6.252;2023-11-19T10:34:56;13.70;99.90
37432;DHT22;23292;51.300;6.252;2023-11-19T10:37:31;13.90;99.90
37432;DHT22;23292;51.300;6.252;2023-11-19T10:39:59;13.80;99.90
37432;DHT22;23292;51.300;6.252;2023-11-19T10:42:26;13.80;99.90
37432;DHT22;23292;51.300;6.252;2023-11-19T10:44:53;13.90;99.90
37432;DHT22;23292;51.300;6.252;2023-11-19T10:47:22;14.00;99.90
37432;DHT22;23292;51.300;6.252;2023-11-19T10:49:53;14.20;99.90
37432;DHT22;23292;51.300;6.252;2023-11-19T10:52:20;14.30;99.90
37432;DHT22;23292;51.300;6.252;2023-11-19T10:54:50;14.30;99.90
37432;DHT22;23292;51.300;6.252;2023-11-19T10:57:21;14.20;99.90
37432;DHT22;23292;51.300;6.252;2023-11-19T10:59:57;14.10;99.90
37432;DHT22;23292;51.300;6.252;2023-11-19T11:02:27;14.20;99.90
37432;DHT22;23292;51.300;6.252;2023-11-19T11:04:55;14.20;99.90
37432;DHT22;23292;51.300;6.252;2023-11-19T11:07:23;14.10;99.90
37432;DHT22;23292;51.300;6.252;2023-11-19T11:10:05;14.10;99.90
37432;DHT22;23292;51.300;6.252;2023-11-19T11:12:37;14.10;99.90
37432;DHT22;23292;51.300;6.252;2023-11-19T11:15:06;14.10;99.90
37432;DHT22;23292;51.300;6.252;2023-11-19T11:17:34;14.10;99.90
37432;DHT22;23292;51.300;6.252;2023-11-19T11:20:02;14.10;99.90
37432;DHT22;23292;51.300;6.252;2023-11-19T11:22:34;14.10;99.90
37432;DHT22;23292;51.300;6.252;2023-11-19T11:28:22;14.00;99.90
37432;DHT22;23292;51.300;6.252;2023-11-19T11:31:25;13.90;99.90
37432;DHT22;23292;51.300;6.252;2023-11-19T11:36:49;14.40;99.90
37432;DHT22;23292;51.300;6.252;2023-11-19T11:39:22;14.50;99.90
37432;DHT22;23292;51.300;6.252;2023-11-19T11:45:02;14.40;99.90
37432;DHT22;23292;51.300;6.252;2023-11-19T11:50:18;14.70;99.90
37432;DHT22;23292;51.300;6.252;2023-11-19T11:55:29;14.50;99.90
37432;DHT22;23292;51.300;6.252;2023-11-19T11:58:00;14.70;99.90
37432;DHT22;23292;51.300;6.252;2023-11-19T12:02:59;14.70;99.90
37432;DHT22;23292;51.300;6.252;2023-11-19T12:05:26;14.50;99.90
37432;DHT22;23292;51.300;6.252;2023-11-19T12:08:01;14.50;99.90
37432;DHT22;23292;51.300;6.252;2023-11-19T12:10:49;14.30;99.90
37432;DHT22;23292;51.300;6.252;2023-11-19T12:13:17;14.10;99.90
37432;DHT22;23292;51.300;6.252;2023-11-19T12:18:29;13.90;99.90
37432;DHT22;23292;51.300;6.252;2023-11-19T12:20:57;13.70;99.90
37432;DHT22;23292;51.300;6.252;2023-11-19T12:23:27;13.50;99.90
37432;DHT22;23292;51.300;6.252;2023-11-19T12:25:56;13.20;99.90
37432;DHT22;23292;51.300;6.252;2023-11-19T12:28:23;13.10;99.90
37432;DHT22;23292;51.300;6.252;2023-11-19T12:30:53;13.10;99.90
37432;DHT22;23292;51.300;6.252;2023-11-19T12:33:20;13.40;99.90
37432;DHT22;23292;51.300;6.252;2023-11-19T12:35:48;13.90;99.90
37432;DHT22;23292;51.300;6.252;2023-11-19T12:38:19;14.10;99.90
37432;DHT22;23292;51.300;6.252;2023-11-19T12:40:48;14.10;99.90
37432;DHT22;23292;51.300;6.252;2023-11-19T12:43:28;14.10;99.90
37432;DHT22;23292;51.300;6.252;2023-11-19T12:45:55;14.20;99.90
37432;DHT22;23292;51.300;6.252;2023-11-19T12:48:22;14.30;99.90
37432;DHT22;23292;51.300;6.252;2023-11-19T12:50:56;14.40;99.90
37432;DHT22;23292;51.300;6.252;2023-11-19T12:53:26;14.60;99.90
37432;DHT22;23292;51.300;6.252;2023-11-19T12:55:54;14.70;99.90
37432;DHT22;23292;51.300;6.252;2023-11-19T12:58:34;14.70;99.90
37432;DHT22;23292;51.300;6.252;2023-11-19T13:01:07;14.60;99.90
37432;DHT22;23292;51.300;6.252;2023-11-19T13:03:37;14.70;99.90
37432;DHT22;23292;51.300;6.252;2023-11-19T13:06:07;14.60;99.90
37432;DHT22;23292;51.300;6.252;2023-11-19T13:08:44;14.70;99.90
37432;DHT22;23292;51.300;6.252;2023-11-19T13:11:13;14.90;99.90
37432;DHT22;23292;51.300;6.252;2023-11-19T13:14:03;14.90;99.90
37432;DHT22;23292;51.300;6.252;2023-11-19T13:16:37;14.90;99.90
37432;DHT22;23292;51.300;6.252;2023-11-19T13:19:04;15.00;99.90
37432;DHT22;23292;51.300;6.252;2023-11-19T13:21:32;15.00;99.90
37432;DHT22;23292;51.300;6.252;2023-11-19T13:23:59;14.80;99.90
37432;DHT22;23292;51.300;6.252;2023-11-19T13:26:26;14.50;99.90
37432;DHT22;23292;51.300;6.252;2023-11-19T13:28:52;14.40;99.90
37432;DHT22;23292;51.300;6.252;2023-11-19T13:31:19;14.20;99.90
37432;DHT22;23292;51.300;6.252;2023-11-19T13:33:46;14.10;99.90
37432;DHT22;23292;51.300;6.252;2023-11-19T13:36:13;14.00;99.90
37432;DHT22;23292;51.300;6.252;2023-11-19T13:38:43;13.80;99.90
37432;DHT22;23292;51.300;6.252;2023-11-19T13:41:14;13.70;99.90
37432;DHT22;23292;51.300;6.252;2023-11-19T13:43:41;13.60;99.90
37432;DHT22;23292;51.300;6.252;2023-11-19T13:46:07;13.40;99.90
37432;DHT22;23292;51.300;6.252;2023-11-19T13:48:36;13.30;99.90
37432;DHT22;23292;51.300;6.252;2023-11-19T13:51:04;13.30;99.90
37432;DHT22;23292;51.300;6.252;2023-11-19T13:53:32;13.30;99.90
37432;DHT22;23292;51.300;6.252;2023-11-19T13:56:17;13.40;99.90
37432;DHT22;23292;51.300;6.252;2023-11-19T13:58:44;13.40;99.90
37432;DHT22;23292;51.300;6.252;2023-11-19T14:01:11;13.30;99.90
37432;DHT22;23292;51.300;6.252;2023-11-19T14:03:39;13.10;99.90
37432;DHT22;23292;51.300;6.252;2023-11-19T14:06:07;13.10;99.90
37432;DHT22;23292;51.300;6.252;2023-11-19T14:08:35;13.10;99.90
37432;DHT22;23292;51.300;6.252;2023-11-19T14:11:02;13.00;99.90
37432;DHT22;23292;51.300;6.252;2023-11-19T14:13:29;13.00;99.90
37432;DHT22;23292;51.300;6.252;2023-11-19T14:15:56;12.90;99.90
37432;DHT22;23292;51.300;6.252;2023-11-19T14:18:23;12.70;99.90
37432;DHT22;23292;51.300;6.252;2023-11-19T14:20:50;12.60;99.90
37432;DHT22;23292;51.300;6.252;2023-11-19T14:23:17;12.50;99.90
37432;DHT22;23292;51.300;6.252;2023-11-19T14:25:44;12.40;99.90
37432;DHT22;23292;51.300;6.252;2023-11-19T14:28:11;12.30;99.90
37432;DHT22;23292;51.300;6.252;2023-11-19T14:30:38;12.10;99.90
37432;DHT22;23292;51.300;6.252;2023-11-19T14:33:05;12.00;99.90
37432;DHT22;23292;51.300;6.252;2023-11-19T14:35:32;12.00;99.90
37432;DHT22;23292;51.300;6.252;2023-11-19T14:38:00;12.00;99.90
37432;DHT22;23292;51.300;6.252;2023-11-19T14:40:31;12.00;99.90
37432;DHT22;23292;51.300;6.252;2023-11-19T14:43:01;11.90;99.90
37432;DHT22;23292;51.300;6.252;2023-11-19T14:45:28;11.90;99.90
37432;DHT22;23292;51.300;6.252;2023-11-19T14:48:02;12.00;99.90
37432;DHT22;23292;51.300;6.252;2023-11-19T14:50:29;12.00;99.90
37432;DHT22;23292;51.300;6.252;2023-11-19T14:52:56;12.10;99.90
37432;DHT22;23292;51.300;6.252;2023-11-19T14:55:22;12.00;99.90
37432;DHT22;23292;51.300;6.252;2023-11-19T14:57:49;12.00;99.90
37432;DHT22;23292;51.300;6.252;2023-11-19T15:00:31;12.00;99.90
37432;DHT22;23292;51.300;6.252;2023-11-19T15:03:00;11.90;99.90
37432;DHT22;23292;51.300;6.252;2023-11-19T15:05:27;12.00;99.90
37432;DHT22;23292;51.300;6.252;2023-11-19T15:07:55;12.00;99.90
37432;DHT22;23292;51.300;6.252;2023-11-19T15:10:22;12.00;99.90
37432;DHT22;23292;51.300;6.252;2023-11-19T15:12:51;11.90;99.90
37432;DHT22;23292;51.300;6.252;2023-11-19T15:15:20;12.00;99.90
37432;DHT22;23292;51.300;6.252;2023-11-19T15:17:50;12.00;99.90
37432;DHT22;23292;51.300;6.252;2023-11-19T15:20:17;12.00;99.90
37432;DHT22;23292;51.300;6.252;2023-11-19T15:22:46;11.90;99.90
37432;DHT22;23292;51.300;6.252;2023-11-19T15:25:13;12.00;99.90
37432;DHT22;23292;51.300;6.252;2023-11-19T15:27:40;12.00;99.90
37432;DHT22;23292;51.300;6.252;2023-11-19T15:30:07;12.00;99.90
37432;DHT22;23292;51.300;6.252;2023-11-19T15:32:37;12.00;99.90
37432;DHT22;23292;51.300;6.252;2023-11-19T15:35:04;12.00;99.90
37432;DHT22;23292;51.300;6.252;2023-11-19T15:37:34;11.90;99.90
37432;DHT22;23292;51.300;6.252;2023-11-19T15:40:01;11.90;99.90
37432;DHT22;23292;51.300;6.252;2023-11-19T15:42:30;12.00;99.90
37432;DHT22;23292;51.300;6.252;2023-11-19T15:44:57;11.90;99.90
37432;DHT22;23292;51.300;6.252;2023-11-19T15:47:24;11.90;99.90
37432;DHT22;23292;51.300;6.252;2023-11-19T15:49:51;11.90;99.90
37432;DHT22;23292;51.300;6.252;2023-11-19T15:52:18;11.90;99.90
37432;DHT22;23292;51.300;6.252;2023-11-19T15:54:45;11.80;99.90
37432;DHT22;23292;51.300;6.252;2023-11-19T15:57:14;11.80;99.90